Time,TemperatureF,DewpointF,PressureIn,WindDirection,WindDirectionDegrees,WindSpeedMPH,WindSpeedGustMPH,Humidity,HourlyPrecipIn,Conditions,Clouds,dailyrainin,SoftwareType,DateUTC
2013-11-22 00:01:00,52.0,45.0,29.66,NW,315,0.0,0.0,77,0.00,,---,0.00,VWS V13.01,2013-11-22 08:01:00,
2013-11-22 00:06:00,52.0,45.0,29.66,NNW,337,0.0,0.0,77,0.00,,---,0.00,VWS V13.01,2013-11-22 08:06:00,
2013-11-22 00:11:00,51.0,44.0,29.66,NW,315,0.0,0.0,77,0.00,,---,0.00,VWS V13.01,2013-11-22 08:11:00,
2013-11-22 00:16:00,51.0,44.0,29.67,NW,315,0.0,0.0,77,0.00,,---,0.00,VWS V13.01,2013-11-22 08:16:00,
2013-11-22 00:21:00,50.0,43.1,29.67,NW,315,0.0,0.0,77,0.00,,---,0.00,VWS V13.01,2013-11-22 08:21:00,
2013-11-22 00:26:00,50.0,43.1,29.67,NW,315,0.0,0.0,77,0.00,,---,0.00,VWS V13.01,2013-11-22 08:26:00,
2013-11-22 00:31:00,50.0,43.1,29.67,NW,315,0.0,0.0,77,0.00,,---,0.00,VWS V13.01,2013-11-22 08:31:00,
2013-11-22 00:36:00,49.0,42.1,29.67,NW,315,0.0,0.0,77,0.00,,---,0.00,VWS V13.01,2013-11-22 08:36:00,
2013-11-22 00:41:00,49.0,42.1,29.67,NW,315,0.0,0.0,77,0.00,,---,0.00,VWS V13.01,2013-11-22 08:41:00,
2013-11-22 00:46:00,49.0,42.1,29.67,NW,315,0.0,0.0,77,0.00,,---,0.00,VWS V13.01,2013-11-22 08:46:00,
2013-11-22 00:51:00,48.0,41.2,29.67,West,270,0.0,0.0,77,0.00,,---,0.00,VWS V13.01,2013-11-22 08:51:00,
2013-11-22 00:56:00,48.0,41.2,29.68,West,270,0.0,0.0,77,0.00,,---,0.00,VWS V13.01,2013-11-22 08:56:00,
2013-11-22 01:01:00,48.0,41.2,29.68,West,270,0.0,0.0,77,0.00,,---,0.00,VWS V13.01,2013-11-22 09:01:00,
2013-11-22 01:06:00,47.0,39.8,29.67,West,270,0.0,0.0,76,0.00,,---,0.00,VWS V13.01,2013-11-22 09:06:00,
2013-11-22 01:11:00,47.0,39.8,29.67,WNW,292,0.0,2.0,76,0.00,,---,0.00,VWS V13.01,2013-11-22 09:11:00,
2013-11-22 01:16:00,47.0,39.8,29.66,WNW,292,0.0,0.0,76,0.00,,---,0.00,VWS V13.01,2013-11-22 09:16:00,
2013-11-22 01:21:00,47.0,39.8,29.66,WNW,292,0.0,2.0,76,0.00,,---,0.00,VWS V13.01,2013-11-22 09:21:00,
2013-11-22 01:26:00,46.0,38.9,29.65,WNW,292,0.0,0.0,76,0.00,,---,0.00,VWS V13.01,2013-11-22 09:26:00,
2013-11-22 01:31:00,46.0,38.9,29.65,West,270,0.0,0.0,76,0.00,,---,0.00,VWS V13.01,2013-11-22 09:31:00,
2013-11-22 01:36:00,46.0,38.9,29.67,West,270,2.0,2.0,76,0.00,,---,0.00,VWS V13.01,2013-11-22 09:36:00,
2013-11-22 01:41:00,46.0,38.9,29.67,West,270,0.0,0.0,76,0.00,,---,0.00,VWS V13.01,2013-11-22 09:41:00,
2013-11-22 01:46:00,47.0,39.8,29.67,WSW,247,0.0,0.0,76,0.00,,---,0.00,VWS V13.01,2013-11-22 09:46:00,
2013-11-22 01:51:00,48.0,41.2,29.67,West,270,0.0,0.0,77,0.00,,---,0.00,VWS V13.01,2013-11-22 09:51:00,
2013-11-22 01:56:00,48.0,41.2,29.66,West,270,1.0,1.0,77,0.00,,---,0.00,VWS V13.01,2013-11-22 09:56:00,
2013-11-22 02:01:00,49.0,42.1,29.66,West,270,0.0,0.0,77,0.00,,---,0.00,VWS V13.01,2013-11-22 10:01:00,
2013-11-22 02:06:00,48.0,41.2,29.67,West,270,0.0,0.0,77,0.00,,---,0.00,VWS V13.01,2013-11-22 10:06:00,
2013-11-22 02:11:00,48.0,41.2,29.67,West,270,0.0,0.0,77,0.00,,---,0.00,VWS V13.01,2013-11-22 10:11:00,
2013-11-22 02:16:00,48.0,41.2,29.66,SW,225,0.0,0.0,77,0.00,,---,0.00,VWS V13.01,2013-11-22 10:16:00,
2013-11-22 02:21:00,48.0,41.2,29.66,SW,225,0.0,0.0,77,0.00,,---,0.00,VWS V13.01,2013-11-22 10:21:00,
2013-11-22 02:26:00,48.0,41.2,29.67,SW,225,0.0,0.0,77,0.00,,---,0.00,VWS V13.01,2013-11-22 10:26:00,
2013-11-22 02:31:00,48.0,41.2,29.67,SW,225,0.0,0.0,77,0.00,,---,0.00,VWS V13.01,2013-11-22 10:31:00,
2013-11-22 02:36:00,48.0,41.2,29.67,SW,225,0.0,0.0,77,0.00,,---,0.00,VWS V13.01,2013-11-22 10:36:00,
2013-11-22 02:41:00,48.0,41.2,29.67,SW,225,0.0,0.0,77,0.00,,---,0.00,VWS V13.01,2013-11-22 10:41:00,
2013-11-22 02:46:00,48.0,41.2,29.67,SW,225,0.0,0.0,77,0.00,,---,0.00,VWS V13.01,2013-11-22 10:46:00,
2013-11-22 02:51:00,49.0,42.1,29.67,SW,225,0.0,0.0,77,0.00,,---,0.00,VWS V13.01,2013-11-22 10:51:00,
2013-11-22 02:56:00,50.0,43.1,29.67,WSW,247,0.0,0.0,77,0.00,,---,0.00,VWS V13.01,2013-11-22 10:56:00,
2013-11-22 03:01:00,50.0,43.1,29.67,NNE,22,0.0,1.0,77,0.00,,---,0.00,VWS V13.01,2013-11-22 11:01:00,
2013-11-22 03:06:00,51.0,44.0,29.66,NNE,22,0.0,0.0,77,0.00,,---,0.00,VWS V13.01,2013-11-22 11:06:00,
2013-11-22 03:11:00,51.0,44.0,29.66,NNE,22,0.0,0.0,77,0.00,,---,0.00,VWS V13.01,2013-11-22 11:11:00,
2013-11-22 03:16:00,51.0,44.0,29.66,NE,45,0.0,0.0,77,0.00,,---,0.00,VWS V13.01,2013-11-22 11:16:00,
2013-11-22 03:21:00,51.0,44.0,29.66,NE,45,0.0,0.0,77,0.00,,---,0.00,VWS V13.01,2013-11-22 11:21:00,
2013-11-22 03:26:00,51.0,44.0,29.65,NE,45,0.0,0.0,77,0.00,,---,0.00,VWS V13.01,2013-11-22 11:26:00,
2013-11-22 03:31:00,51.0,44.0,29.65,NE,45,0.0,0.0,77,0.00,,---,0.00,VWS V13.01,2013-11-22 11:31:00,
2013-11-22 03:36:00,50.0,43.1,29.66,WNW,292,0.0,0.0,77,0.00,,---,0.00,VWS V13.01,2013-11-22 11:36:00,
2013-11-22 03:41:00,50.0,43.1,29.66,West,270,0.0,0.0,77,0.00,,---,0.00,VWS V13.01,2013-11-22 11:41:00,
2013-11-22 03:46:00,50.0,43.1,29.65,West,270,0.0,0.0,77,0.00,,---,0.00,VWS V13.01,2013-11-22 11:46:00,
2013-11-22 03:51:00,49.0,42.1,29.65,West,270,0.0,0.0,77,0.00,,---,0.00,VWS V13.01,2013-11-22 11:51:00,
2013-11-22 03:56:00,49.0,42.1,29.66,West,270,0.0,0.0,77,0.00,,---,0.00,VWS V13.01,2013-11-22 11:56:00,
2013-11-22 04:01:00,49.0,42.1,29.66,West,270,4.0,5.0,77,0.00,,---,0.00,VWS V13.01,2013-11-22 12:01:00,
2013-11-22 04:06:00,49.0,42.1,29.66,WNW,292,0.0,0.0,77,0.00,,---,0.00,VWS V13.01,2013-11-22 12:06:00,
2013-11-22 04:11:00,49.0,42.1,29.66,SE,135,0.0,0.0,77,0.00,,---,0.00,VWS V13.01,2013-11-22 12:11:00,
2013-11-22 04:16:00,49.0,42.1,29.67,SSW,202,0.0,0.0,77,0.00,,---,0.00,VWS V13.01,2013-11-22 12:16:00,
2013-11-22 04:21:00,49.0,42.1,29.67,WSW,247,0.0,0.0,77,0.00,,---,0.00,VWS V13.01,2013-11-22 12:21:00,
2013-11-22 04:26:00,49.0,42.1,29.66,West,270,0.0,0.0,77,0.00,,---,0.00,VWS V13.01,2013-11-22 12:26:00,
2013-11-22 04:31:00,49.0,42.1,29.66,West,270,0.0,0.0,77,0.00,,---,0.00,VWS V13.01,2013-11-22 12:31:00,
2013-11-22 04:36:00,49.0,42.1,29.66,West,270,0.0,0.0,77,0.00,,---,0.00,VWS V13.01,2013-11-22 12:36:00,
2013-11-22 04:41:00,49.0,42.1,29.66,West,270,0.0,0.0,77,0.00,,---,0.00,VWS V13.01,2013-11-22 12:41:00,
2013-11-22 04:46:00,49.0,42.1,29.65,West,270,0.0,0.0,77,0.00,,---,0.00,VWS V13.01,2013-11-22 12:46:00,
2013-11-22 04:51:00,49.0,42.1,29.65,West,270,0.0,0.0,77,0.00,,---,0.00,VWS V13.01,2013-11-22 12:51:00,
2013-11-22 04:56:00,49.0,42.1,29.65,West,270,0.0,0.0,77,0.00,,---,0.00,VWS V13.01,2013-11-22 12:56:00,
2013-11-22 05:01:00,49.0,42.1,29.65,South,180,0.0,1.0,77,0.00,,---,0.00,VWS V13.01,2013-11-22 13:01:00,
2013-11-22 05:06:00,49.0,42.1,29.66,South,180,0.0,0.0,77,0.00,,---,0.00,VWS V13.01,2013-11-22 13:06:00,
2013-11-22 05:11:00,50.0,43.1,29.66,SW,225,0.0,0.0,77,0.00,,---,0.00,VWS V13.01,2013-11-22 13:11:00,
2013-11-22 05:16:00,50.0,43.1,29.65,West,270,0.0,0.0,77,0.00,,---,0.00,VWS V13.01,2013-11-22 13:16:00,
2013-11-22 05:21:00,50.0,43.1,29.65,WSW,247,0.0,0.0,77,0.00,,---,0.00,VWS V13.01,2013-11-22 13:21:00,
2013-11-22 05:26:00,49.0,42.1,29.66,SSW,202,0.0,1.0,77,0.00,,---,0.00,VWS V13.01,2013-11-22 13:26:00,
2013-11-22 05:31:00,49.0,42.1,29.66,SSW,202,0.0,0.0,77,0.00,,---,0.00,VWS V13.01,2013-11-22 13:31:00,
2013-11-22 05:36:00,48.0,41.2,29.67,SE,135,0.0,0.0,77,0.00,,---,0.00,VWS V13.01,2013-11-22 13:36:00,
2013-11-22 05:41:00,48.0,41.2,29.67,West,270,0.0,0.0,77,0.00,,---,0.00,VWS V13.01,2013-11-22 13:41:00,
2013-11-22 05:46:00,49.0,42.1,29.66,SW,225,0.0,4.0,77,0.00,,---,0.00,VWS V13.01,2013-11-22 13:46:00,
2013-11-22 05:51:00,48.0,41.2,29.66,SSW,202,0.0,0.0,77,0.00,,---,0.00,VWS V13.01,2013-11-22 13:51:00,
2013-11-22 05:56:00,47.0,39.8,29.67,SSW,202,2.0,2.0,76,0.00,,---,0.00,VWS V13.01,2013-11-22 13:56:00,
2013-11-22 06:01:00,47.0,39.8,29.67,SSW,202,0.0,0.0,76,0.00,,---,0.00,VWS V13.01,2013-11-22 14:01:00,
2013-11-22 06:06:00,46.0,38.9,29.67,SW,225,0.0,0.0,76,0.00,,---,0.00,VWS V13.01,2013-11-22 14:06:00,
2013-11-22 06:11:00,47.0,39.8,29.67,WNW,292,1.0,1.0,76,0.00,,---,0.00,VWS V13.01,2013-11-22 14:11:00,
2013-11-22 06:16:00,47.0,39.8,29.66,North,360,0.0,0.0,76,0.00,,---,0.00,VWS V13.01,2013-11-22 14:16:00,
2013-11-22 06:21:00,47.0,39.8,29.66,NNE,22,0.0,0.0,76,0.00,,---,0.00,VWS V13.01,2013-11-22 14:21:00,
2013-11-22 06:26:00,47.0,39.8,29.68,North,360,0.0,1.0,76,0.00,,---,0.00,VWS V13.01,2013-11-22 14:26:00,
2013-11-22 06:31:00,47.0,39.8,29.68,NE,45,0.0,0.0,76,0.00,,---,0.00,VWS V13.01,2013-11-22 14:31:00,
2013-11-22 06:36:00,46.0,38.9,29.69,NE,45,0.0,0.0,76,0.00,,---,0.00,VWS V13.01,2013-11-22 14:36:00,
2013-11-22 06:41:00,46.0,38.9,29.69,NE,45,0.0,0.0,76,0.00,,---,0.00,VWS V13.01,2013-11-22 14:41:00,
2013-11-22 06:46:00,46.0,38.9,29.70,NE,45,0.0,0.0,76,0.00,,---,0.00,VWS V13.01,2013-11-22 14:46:00,
2013-11-22 06:51:00,46.0,38.9,29.70,North,360,0.0,0.0,76,0.00,,---,0.00,VWS V13.01,2013-11-22 14:51:00,
2013-11-22 06:56:00,45.0,37.9,29.71,North,360,0.0,0.0,76,0.00,,---,0.00,VWS V13.01,2013-11-22 14:56:00,
2013-11-22 07:01:00,45.0,37.9,29.71,North,360,0.0,0.0,76,0.00,,---,0.00,VWS V13.01,2013-11-22 15:01:00,
2013-11-22 07:06:00,45.0,37.9,29.71,North,360,0.0,0.0,76,0.00,,---,0.00,VWS V13.01,2013-11-22 15:06:00,
2013-11-22 07:11:00,45.0,37.9,29.71,North,360,0.0,0.0,76,0.00,,---,0.00,VWS V13.01,2013-11-22 15:11:00,
2013-11-22 07:16:00,45.0,37.9,29.71,North,360,0.0,0.0,76,0.00,,---,0.00,VWS V13.01,2013-11-22 15:16:00,
2013-11-22 07:21:00,45.0,37.9,29.71,North,360,0.0,0.0,76,0.00,,---,0.00,VWS V13.01,2013-11-22 15:21:00,
2013-11-22 07:26:00,44.0,36.9,29.70,North,360,0.0,0.0,76,0.00,,---,0.00,VWS V13.01,2013-11-22 15:26:00,
2013-11-22 07:31:00,44.0,36.9,29.70,NE,45,0.0,0.0,76,0.00,,---,0.00,VWS V13.01,2013-11-22 15:31:00,
2013-11-22 07:36:00,44.0,36.9,29.71,North,360,0.0,0.0,76,0.00,,---,0.00,VWS V13.01,2013-11-22 15:36:00,
2013-11-22 07:41:00,44.0,36.9,29.71,NNE,22,0.0,1.0,76,0.00,,---,0.00,VWS V13.01,2013-11-22 15:41:00,
2013-11-22 07:46:00,44.0,36.9,29.71,NNE,22,0.0,0.0,76,0.00,,---,0.00,VWS V13.01,2013-11-22 15:46:00,
2013-11-22 07:51:00,44.0,36.9,29.71,North,360,4.0,4.0,76,0.00,,---,0.00,VWS V13.01,2013-11-22 15:51:00,
2013-11-22 07:56:00,44.0,36.9,29.70,NE,45,2.0,2.0,76,0.00,,---,0.00,VWS V13.01,2013-11-22 15:56:00,
2013-11-22 08:01:00,45.0,37.9,29.70,North,360,1.0,1.0,76,0.00,,---,0.00,VWS V13.01,2013-11-22 16:01:00,
2013-11-22 08:06:00,45.0,37.9,29.69,North,360,2.0,2.0,76,0.00,,---,0.00,VWS V13.01,2013-11-22 16:06:00,
2013-11-22 08:11:00,46.0,38.9,29.69,NE,45,0.0,0.0,76,0.00,,---,0.00,VWS V13.01,2013-11-22 16:11:00,
2013-11-22 08:16:00,46.0,38.9,29.69,North,360,0.0,0.0,76,0.00,,---,0.00,VWS V13.01,2013-11-22 16:16:00,
2013-11-22 08:21:00,46.0,38.9,29.69,North,360,0.0,0.0,76,0.00,,---,0.00,VWS V13.01,2013-11-22 16:21:00,
2013-11-22 08:26:00,46.0,38.9,29.71,NNE,22,0.0,0.0,76,0.00,,---,0.00,VWS V13.01,2013-11-22 16:26:00,
2013-11-22 08:31:00,47.0,39.8,29.71,North,360,3.0,3.0,76,0.00,,---,0.00,VWS V13.01,2013-11-22 16:31:00,
2013-11-22 08:36:00,48.0,41.2,29.69,North,360,0.0,0.0,77,0.00,,---,0.00,VWS V13.01,2013-11-22 16:36:00,
2013-11-22 08:41:00,49.0,42.1,29.69,East,90,1.0,1.0,77,0.00,,---,0.00,VWS V13.01,2013-11-22 16:41:00,
2013-11-22 08:46:00,50.0,43.1,29.69,NW,315,0.0,0.0,77,0.00,,---,0.00,VWS V13.01,2013-11-22 16:46:00,
2013-11-22 08:51:00,51.0,44.0,29.69,NW,315,0.0,0.0,77,0.00,,---,0.00,VWS V13.01,2013-11-22 16:51:00,
2013-11-22 08:56:00,52.0,45.0,29.69,NW,315,0.0,0.0,77,0.00,,---,0.00,VWS V13.01,2013-11-22 16:56:00,
2013-11-22 09:01:00,53.0,46.0,29.69,NW,315,0.0,0.0,77,0.00,,---,0.00,VWS V13.01,2013-11-22 17:01:00,
2013-11-22 09:06:00,54.0,47.3,29.69,NW,315,0.0,0.0,78,0.00,,---,0.00,VWS V13.01,2013-11-22 17:06:00,
2013-11-22 09:11:00,55.0,48.3,29.69,North,360,0.0,0.0,78,0.00,,---,0.00,VWS V13.01,2013-11-22 17:11:00,
2013-11-22 09:16:00,55.0,48.3,29.69,North,360,1.0,1.0,78,0.00,,---,0.00,VWS V13.01,2013-11-22 17:16:00,
2013-11-22 09:21:00,56.0,49.2,29.69,North,360,0.0,0.0,78,0.00,,---,0.00,VWS V13.01,2013-11-22 17:21:00,
2013-11-22 09:26:00,56.0,49.2,29.68,North,360,0.0,0.0,78,0.00,,---,0.00,VWS V13.01,2013-11-22 17:26:00,
2013-11-22 09:31:00,57.0,50.2,29.68,NNE,22,0.0,0.0,78,0.00,,---,0.00,VWS V13.01,2013-11-22 17:31:00,
2013-11-22 09:36:00,57.0,50.2,29.69,NNE,22,0.0,0.0,78,0.00,,---,0.00,VWS V13.01,2013-11-22 17:36:00,
2013-11-22 09:41:00,57.0,50.2,29.69,NNE,22,0.0,0.0,78,0.00,,---,0.00,VWS V13.01,2013-11-22 17:41:00,
2013-11-22 09:46:00,58.0,51.2,29.68,NNE,22,0.0,0.0,78,0.00,,---,0.00,VWS V13.01,2013-11-22 17:46:00,
2013-11-22 09:51:00,58.0,51.2,29.68,NNE,22,0.0,0.0,78,0.00,,---,0.00,VWS V13.01,2013-11-22 17:51:00,
2013-11-22 09:56:00,59.0,52.2,29.67,NNE,22,0.0,0.0,78,0.00,,---,0.00,VWS V13.01,2013-11-22 17:56:00,
2013-11-22 10:01:00,60.0,53.5,29.67,North,360,0.0,0.0,79,0.00,,---,0.00,VWS V13.01,2013-11-22 18:01:00,
2013-11-22 10:06:00,60.0,53.5,29.66,NNE,22,0.0,1.0,79,0.00,,---,0.00,VWS V13.01,2013-11-22 18:06:00,
2013-11-22 10:11:00,61.0,54.5,29.66,North,360,1.0,1.0,79,0.00,,---,0.00,VWS V13.01,2013-11-22 18:11:00,
2013-11-22 10:16:00,61.0,54.5,29.65,NNE,22,0.0,0.0,79,0.00,,---,0.00,VWS V13.01,2013-11-22 18:16:00,
2013-11-22 10:21:00,62.0,55.4,29.65,North,360,0.0,2.0,79,0.00,,---,0.00,VWS V13.01,2013-11-22 18:21:00,
2013-11-22 10:26:00,62.0,55.4,29.64,NNE,22,1.0,1.0,79,0.00,,---,0.00,VWS V13.01,2013-11-22 18:26:00,
2013-11-22 10:31:00,62.0,55.4,29.64,North,360,1.0,1.0,79,0.00,,---,0.00,VWS V13.01,2013-11-22 18:31:00,
2013-11-22 10:36:00,63.0,56.4,29.64,North,360,1.0,1.0,79,0.00,,---,0.00,VWS V13.01,2013-11-22 18:36:00,
2013-11-22 10:41:00,63.0,56.4,29.64,North,360,0.0,0.0,79,0.00,,---,0.00,VWS V13.01,2013-11-22 18:41:00,
2013-11-22 10:46:00,63.0,56.4,29.63,North,360,0.0,0.0,79,0.00,,---,0.00,VWS V13.01,2013-11-22 18:46:00,
2013-11-22 10:51:00,64.0,57.4,29.63,North,360,2.0,2.0,79,0.00,,---,0.00,VWS V13.01,2013-11-22 18:51:00,
2013-11-22 10:56:00,65.0,58.3,29.63,NNE,22,4.0,4.0,79,0.00,,---,0.00,VWS V13.01,2013-11-22 18:56:00,
2013-11-22 11:01:00,65.0,58.3,29.63,North,360,11.0,11.0,79,0.00,,---,0.00,VWS V13.01,2013-11-22 19:01:00,
2013-11-22 11:06:00,66.0,59.3,29.62,NNE,22,3.0,3.0,79,0.00,,---,0.00,VWS V13.01,2013-11-22 19:06:00,
2013-11-22 11:11:00,66.0,59.3,29.62,NE,45,6.0,8.0,79,0.00,,---,0.00,VWS V13.01,2013-11-22 19:11:00,
2013-11-22 11:16:00,67.0,60.3,29.61,NNE,22,4.0,4.0,79,0.00,,---,0.00,VWS V13.01,2013-11-22 19:16:00,
2013-11-22 11:21:00,67.0,60.3,29.61,NE,45,10.0,10.0,79,0.00,,---,0.00,VWS V13.01,2013-11-22 19:21:00,
2013-11-22 11:26:00,67.0,60.3,29.61,NE,45,3.0,3.0,79,0.00,,---,0.00,VWS V13.01,2013-11-22 19:26:00,
2013-11-22 11:31:00,67.0,60.3,29.61,ENE,67,8.0,8.0,79,0.00,,---,0.00,VWS V13.01,2013-11-22 19:31:00,
2013-11-22 11:36:00,67.0,60.3,29.61,NE,45,6.0,8.0,79,0.00,,---,0.00,VWS V13.01,2013-11-22 19:36:00,
2013-11-22 11:41:00,67.0,60.3,29.61,ENE,67,4.0,6.0,79,0.00,,---,0.00,VWS V13.01,2013-11-22 19:41:00,
2013-11-22 11:46:00,68.0,61.6,29.59,NE,45,9.0,9.0,80,0.00,,---,0.00,VWS V13.01,2013-11-22 19:46:00,
2013-11-22 11:51:00,68.0,61.6,29.59,NE,45,7.0,8.0,80,0.00,,---,0.00,VWS V13.01,2013-11-22 19:51:00,
2013-11-22 11:56:00,68.0,61.6,29.61,NE,45,5.0,6.0,80,0.00,,---,0.00,VWS V13.01,2013-11-22 19:56:00,
2013-11-22 12:01:00,68.0,61.6,29.61,NE,45,5.0,5.0,80,0.00,,---,0.00,VWS V13.01,2013-11-22 20:01:00,
2013-11-22 12:06:00,68.0,61.6,29.60,NE,45,5.0,5.0,80,0.00,,---,0.00,VWS V13.01,2013-11-22 20:06:00,
2013-11-22 12:11:00,68.0,61.6,29.60,NE,45,0.0,0.0,80,0.00,,---,0.00,VWS V13.01,2013-11-22 20:11:00,
2013-11-22 12:16:00,68.0,61.6,29.59,NE,45,4.0,4.0,80,0.00,,---,0.00,VWS V13.01,2013-11-22 20:16:00,
2013-11-22 12:21:00,68.0,61.6,29.59,NE,45,2.0,3.0,80,0.00,,---,0.00,VWS V13.01,2013-11-22 20:21:00,
2013-11-22 12:26:00,68.0,61.6,29.61,North,360,3.0,3.0,80,0.00,,---,0.00,VWS V13.01,2013-11-22 20:26:00,
2013-11-22 12:31:00,68.0,61.6,29.61,NNE,22,3.0,16.0,80,0.00,,---,0.00,VWS V13.01,2013-11-22 20:31:00,
2013-11-22 12:36:00,68.0,61.6,29.59,NE,45,1.0,10.0,80,0.00,,---,0.00,VWS V13.01,2013-11-22 20:36:00,
2013-11-22 12:41:00,68.0,61.6,29.59,North,360,4.0,5.0,80,0.00,,---,0.00,VWS V13.01,2013-11-22 20:41:00,
2013-11-22 12:46:00,68.0,61.6,29.60,North,360,0.0,5.0,80,0.00,,---,0.00,VWS V13.01,2013-11-22 20:46:00,
2013-11-22 12:51:00,68.0,61.6,29.60,North,360,0.0,4.0,80,0.00,,---,0.00,VWS V13.01,2013-11-22 20:51:00,
2013-11-22 12:56:00,68.0,61.6,29.60,North,360,6.0,8.0,80,0.00,,---,0.00,VWS V13.01,2013-11-22 20:56:00,
2013-11-22 13:01:00,68.0,61.6,29.60,North,360,0.0,8.0,80,0.00,,---,0.00,VWS V13.01,2013-11-22 21:01:00,
2013-11-22 13:06:00,68.0,61.6,29.60,NNE,22,2.0,4.0,80,0.00,,---,0.00,VWS V13.01,2013-11-22 21:06:00,
2013-11-22 13:11:00,68.0,61.6,29.60,North,360,5.0,8.0,80,0.00,,---,0.00,VWS V13.01,2013-11-22 21:11:00,
2013-11-22 13:16:00,68.0,61.6,29.59,NNE,22,2.0,5.0,80,0.00,,---,0.00,VWS V13.01,2013-11-22 21:16:00,
2013-11-22 13:21:00,68.0,61.6,29.59,North,360,2.0,5.0,80,0.00,,---,0.00,VWS V13.01,2013-11-22 21:21:00,
2013-11-22 13:26:00,67.0,60.3,29.59,NE,45,5.0,11.0,79,0.00,,---,0.00,VWS V13.01,2013-11-22 21:26:00,
2013-11-22 13:31:00,67.0,60.3,29.59,NE,45,6.0,6.0,79,0.00,,---,0.00,VWS V13.01,2013-11-22 21:31:00,
2013-11-22 13:36:00,67.0,60.3,29.60,NE,45,4.0,5.0,79,0.00,,---,0.00,VWS V13.01,2013-11-22 21:36:00,
2013-11-22 13:41:00,67.0,60.3,29.60,NNW,337,1.0,6.0,79,0.00,,---,0.00,VWS V13.01,2013-11-22 21:41:00,
2013-11-22 13:46:00,68.0,61.6,29.57,North,360,1.0,4.0,80,0.00,,---,0.00,VWS V13.01,2013-11-22 21:46:00,
2013-11-22 13:51:00,68.0,61.6,29.57,NNE,22,1.0,2.0,80,0.00,,---,0.00,VWS V13.01,2013-11-22 21:51:00,
2013-11-22 13:56:00,68.0,61.6,29.57,North,360,2.0,6.0,80,0.00,,---,0.00,VWS V13.01,2013-11-22 21:56:00,
2013-11-22 14:01:00,68.0,61.6,29.57,NNE,22,1.0,5.0,80,0.00,,---,0.00,VWS V13.01,2013-11-22 22:01:00,
2013-11-22 14:05:00,68.0,61.6,29.58,North,360,1.0,5.0,80,0.00,,---,0.00,VWS V13.01,2013-11-22 22:05:00,
2013-11-22 14:10:00,69.0,62.6,29.58,NNE,22,0.0,3.0,80,0.00,,---,0.00,VWS V13.01,2013-11-22 22:10:00,
2013-11-22 14:15:00,69.0,62.6,29.56,North,360,0.0,2.0,80,0.00,,---,0.00,VWS V13.01,2013-11-22 22:15:00,
2013-11-22 14:20:00,69.0,62.6,29.56,NNE,22,4.0,5.0,80,0.00,,---,0.00,VWS V13.01,2013-11-22 22:20:00,
2013-11-22 14:25:00,69.0,62.6,29.56,North,360,2.0,4.0,80,0.00,,---,0.00,VWS V13.01,2013-11-22 22:25:00,
2013-11-22 14:30:00,69.0,62.6,29.56,North,360,5.0,5.0,80,0.00,,---,0.00,VWS V13.01,2013-11-22 22:30:00,
2013-11-22 14:35:00,69.0,62.6,29.55,North,360,0.0,3.0,80,0.00,,---,0.00,VWS V13.01,2013-11-22 22:35:00,
2013-11-22 14:40:00,69.0,62.6,29.55,NNE,22,0.0,5.0,80,0.00,,---,0.00,VWS V13.01,2013-11-22 22:40:00,
2013-11-22 14:45:00,68.0,61.6,29.54,North,360,2.0,5.0,80,0.00,,---,0.00,VWS V13.01,2013-11-22 22:45:00,
2013-11-22 14:50:00,68.0,61.6,29.54,ENE,67,0.0,6.0,80,0.00,,---,0.00,VWS V13.01,2013-11-22 22:50:00,
2013-11-22 14:55:00,68.0,61.6,29.54,North,360,0.0,3.0,80,0.00,,---,0.00,VWS V13.01,2013-11-22 22:55:00,
2013-11-22 15:00:00,68.0,61.6,29.54,NNE,22,0.0,1.0,80,0.00,,---,0.00,VWS V13.01,2013-11-22 23:00:00,
2013-11-22 15:05:00,68.0,61.6,29.54,NE,45,1.0,2.0,80,0.00,,---,0.00,VWS V13.01,2013-11-22 23:05:00,
2013-11-22 15:10:00,68.0,61.6,29.54,NNE,22,0.0,0.0,80,0.00,,---,0.00,VWS V13.01,2013-11-22 23:10:00,
2013-11-22 15:15:00,68.0,61.6,29.55,NNE,22,0.0,1.0,80,0.00,,---,0.00,VWS V13.01,2013-11-22 23:15:00,
2013-11-22 15:20:00,68.0,61.6,29.55,NNE,22,0.0,1.0,80,0.00,,---,0.00,VWS V13.01,2013-11-22 23:20:00,
2013-11-22 15:25:00,68.0,61.6,29.54,NE,45,2.0,2.0,80,0.00,,---,0.00,VWS V13.01,2013-11-22 23:25:00,
2013-11-22 15:30:00,68.0,61.6,29.54,NE,45,0.0,0.0,80,0.00,,---,0.00,VWS V13.01,2013-11-22 23:30:00,
2013-11-22 15:35:00,67.0,60.3,29.55,NE,45,0.0,0.0,79,0.00,,---,0.00,VWS V13.01,2013-11-22 23:35:00,
2013-11-22 15:40:00,67.0,60.3,29.55,NE,45,0.0,1.0,79,0.00,,---,0.00,VWS V13.01,2013-11-22 23:40:00,
2013-11-22 15:45:00,67.0,60.3,29.53,NE,45,0.0,0.0,79,0.00,,---,0.00,VWS V13.01,2013-11-22 23:45:00,
2013-11-22 15:50:00,67.0,60.3,29.53,NE,45,0.0,0.0,79,0.00,,---,0.00,VWS V13.01,2013-11-22 23:50:00,
2013-11-22 15:55:00,67.0,60.3,29.53,East,90,0.0,0.0,79,0.00,,---,0.00,VWS V13.01,2013-11-22 23:55:00,
2013-11-22 16:00:00,67.0,60.3,29.53,NE,45,0.0,2.0,79,0.00,,---,0.00,VWS V13.01,2013-11-23 00:00:00,
2013-11-22 16:05:00,67.0,60.3,29.53,NE,45,1.0,3.0,79,0.00,,---,0.00,VWS V13.01,2013-11-23 00:05:00,
2013-11-22 16:10:00,67.0,60.3,29.53,NE,45,0.0,3.0,79,0.00,,---,0.00,VWS V13.01,2013-11-23 00:10:00,
2013-11-22 16:15:00,67.0,60.3,29.53,NE,45,0.0,0.0,79,0.00,,---,0.00,VWS V13.01,2013-11-23 00:15:00,
2013-11-22 16:20:00,66.0,59.3,29.53,NE,45,0.0,0.0,79,0.00,,---,0.00,VWS V13.01,2013-11-23 00:20:00,
2013-11-22 16:25:00,66.0,59.3,29.54,ESE,112,0.0,2.0,79,0.00,,---,0.00,VWS V13.01,2013-11-23 00:25:00,
2013-11-22 16:30:00,65.0,58.3,29.54,ENE,67,0.0,3.0,79,0.00,,---,0.00,VWS V13.01,2013-11-23 00:30:00,
2013-11-22 16:35:00,66.0,59.3,29.53,NE,45,0.0,4.0,79,0.00,,---,0.00,VWS V13.01,2013-11-23 00:35:00,
2013-11-22 16:40:00,66.0,59.3,29.53,NE,45,2.0,3.0,79,0.00,,---,0.00,VWS V13.01,2013-11-23 00:40:00,
2013-11-22 16:45:00,66.0,59.3,29.53,NE,45,2.0,2.0,79,0.00,,---,0.00,VWS V13.01,2013-11-23 00:45:00,
2013-11-22 16:50:00,66.0,59.3,29.53,NE,45,0.0,0.0,79,0.00,,---,0.00,VWS V13.01,2013-11-23 00:50:00,
2013-11-22 16:55:00,66.0,59.3,29.54,NE,45,0.0,4.0,79,0.00,,---,0.00,VWS V13.01,2013-11-23 00:55:00,
2013-11-22 17:00:00,65.0,58.3,29.54,NE,45,0.0,1.0,79,0.00,,---,0.00,VWS V13.01,2013-11-23 01:00:00,
2013-11-22 17:05:00,65.0,58.3,29.54,ENE,67,0.0,0.0,79,0.00,,---,0.00,VWS V13.01,2013-11-23 01:05:00,
2013-11-22 17:10:00,64.0,57.4,29.54,NE,45,0.0,2.0,79,0.00,,---,0.00,VWS V13.01,2013-11-23 01:10:00,
2013-11-22 17:15:00,64.0,57.4,29.55,NE,45,2.0,3.0,79,0.00,,---,0.00,VWS V13.01,2013-11-23 01:15:00,
2013-11-22 17:20:00,64.0,57.4,29.55,ENE,67,4.0,5.0,79,0.00,,---,0.00,VWS V13.01,2013-11-23 01:20:00,
2013-11-22 17:25:00,64.0,57.4,29.55,NNE,22,2.0,3.0,79,0.00,,---,0.00,VWS V13.01,2013-11-23 01:25:00,
2013-11-22 17:30:00,64.0,57.4,29.55,NE,45,1.0,2.0,79,0.00,,---,0.00,VWS V13.01,2013-11-23 01:30:00,
2013-11-22 17:35:00,63.0,56.4,29.53,NE,45,0.0,0.0,79,0.00,,---,0.00,VWS V13.01,2013-11-23 01:35:00,
2013-11-22 17:40:00,63.0,56.4,29.53,NNE,22,0.0,2.0,79,0.00,,---,0.00,VWS V13.01,2013-11-23 01:40:00,
2013-11-22 17:45:00,63.0,56.4,29.57,NNE,22,0.0,0.0,79,0.00,,---,0.00,VWS V13.01,2013-11-23 01:45:00,
2013-11-22 17:50:00,62.0,55.4,29.57,NNE,22,0.0,0.0,79,0.00,,---,0.00,VWS V13.01,2013-11-23 01:50:00,
2013-11-22 17:55:00,61.0,54.5,29.57,NNE,22,1.0,2.0,79,0.00,,---,0.00,VWS V13.01,2013-11-23 01:55:00,
2013-11-22 18:00:00,61.0,54.5,29.57,NE,45,1.0,1.0,79,0.00,,---,0.00,VWS V13.01,2013-11-23 02:00:00,
2013-11-22 18:05:00,62.0,55.4,29.56,NE,45,1.0,5.0,79,0.00,,---,0.00,VWS V13.01,2013-11-23 02:05:00,
2013-11-22 18:10:00,62.0,55.4,29.56,NE,45,2.0,4.0,79,0.00,,---,0.00,VWS V13.01,2013-11-23 02:10:00,
2013-11-22 18:15:00,62.0,55.4,29.56,NNE,22,0.0,0.0,79,0.00,,---,0.00,VWS V13.01,2013-11-23 02:15:00,
2013-11-22 18:20:00,61.0,54.5,29.56,NNE,22,0.0,0.0,79,0.00,,---,0.00,VWS V13.01,2013-11-23 02:20:00,
2013-11-22 18:25:00,61.0,54.5,29.57,NNE,22,0.0,0.0,79,0.00,,---,0.00,VWS V13.01,2013-11-23 02:25:00,
2013-11-22 18:30:00,60.0,53.5,29.57,NNE,22,0.0,0.0,79,0.00,,---,0.00,VWS V13.01,2013-11-23 02:30:00,
2013-11-22 18:35:00,60.0,53.5,29.56,NNE,22,0.0,0.0,79,0.00,,---,0.00,VWS V13.01,2013-11-23 02:35:00,
2013-11-22 18:40:00,60.0,53.5,29.56,North,360,0.0,0.0,79,0.00,,---,0.00,VWS V13.01,2013-11-23 02:40:00,
2013-11-22 18:45:00,60.0,53.5,29.56,North,360,0.0,0.0,79,0.00,,---,0.00,VWS V13.01,2013-11-23 02:45:00,
2013-11-22 18:50:00,59.0,52.2,29.56,North,360,0.0,0.0,78,0.00,,---,0.00,VWS V13.01,2013-11-23 02:50:00,
2013-11-22 18:55:00,59.0,52.2,29.57,North,360,0.0,0.0,78,0.00,,---,0.00,VWS V13.01,2013-11-23 02:55:00,
2013-11-22 19:01:00,58.0,51.2,29.57,North,360,0.0,0.0,78,0.00,,---,0.00,VWS V13.01,2013-11-23 03:01:00,
2013-11-22 19:06:00,58.0,51.2,29.57,North,360,0.0,0.0,78,0.00,,---,0.00,VWS V13.01,2013-11-23 03:06:00,
2013-11-22 19:11:00,57.0,50.2,29.57,North,360,0.0,0.0,78,0.00,,---,0.00,VWS V13.01,2013-11-23 03:11:00,
2013-11-22 19:16:00,57.0,50.2,29.57,North,360,0.0,0.0,78,0.00,,---,0.00,VWS V13.01,2013-11-23 03:16:00,
2013-11-22 19:21:00,56.0,49.2,29.57,North,360,0.0,0.0,78,0.00,,---,0.00,VWS V13.01,2013-11-23 03:21:00,
2013-11-22 19:26:00,56.0,49.2,29.55,North,360,0.0,0.0,78,0.00,,---,0.00,VWS V13.01,2013-11-23 03:26:00,
2013-11-22 19:31:00,56.0,49.2,29.55,NNE,22,0.0,0.0,78,0.00,,---,0.00,VWS V13.01,2013-11-23 03:31:00,
2013-11-22 19:36:00,56.0,49.2,29.56,NNE,22,0.0,0.0,78,0.00,,---,0.00,VWS V13.01,2013-11-23 03:36:00,
2013-11-22 19:41:00,56.0,49.2,29.56,NE,45,0.0,0.0,78,0.00,,---,0.00,VWS V13.01,2013-11-23 03:41:00,
2013-11-22 19:46:00,55.0,48.3,29.57,NE,45,0.0,0.0,78,0.00,,---,0.00,VWS V13.01,2013-11-23 03:46:00,
2013-11-22 19:51:00,56.0,49.2,29.57,NE,45,0.0,0.0,78,0.00,,---,0.00,VWS V13.01,2013-11-23 03:51:00,
2013-11-22 19:56:00,56.0,49.2,29.57,NE,45,0.0,0.0,78,0.00,,---,0.00,VWS V13.01,2013-11-23 03:56:00,
2013-11-22 20:01:00,56.0,49.2,29.57,NNW,337,0.0,0.0,78,0.00,,---,0.00,VWS V13.01,2013-11-23 04:01:00,
2013-11-22 20:06:00,56.0,49.2,29.57,NNW,337,0.0,0.0,78,0.00,,---,0.00,VWS V13.01,2013-11-23 04:06:00,
2013-11-22 20:11:00,56.0,49.2,29.57,NNW,337,0.0,0.0,78,0.00,,---,0.00,VWS V13.01,2013-11-23 04:11:00,
2013-11-22 20:16:00,55.0,48.3,29.58,NNW,337,0.0,0.0,78,0.00,,---,0.00,VWS V13.01,2013-11-23 04:16:00,
2013-11-22 20:21:00,55.0,48.3,29.58,NNW,337,0.0,0.0,78,0.00,,---,0.00,VWS V13.01,2013-11-23 04:21:00,
2013-11-22 20:26:00,55.0,48.3,29.57,NNW,337,0.0,0.0,78,0.00,,---,0.00,VWS V13.01,2013-11-23 04:26:00,
2013-11-22 20:31:00,55.0,48.3,29.57,NNW,337,0.0,0.0,78,0.00,,---,0.00,VWS V13.01,2013-11-23 04:31:00,
2013-11-22 20:36:00,54.0,47.3,29.57,WNW,292,0.0,0.0,78,0.00,,---,0.00,VWS V13.01,2013-11-23 04:36:00,
2013-11-22 20:41:00,54.0,47.3,29.57,WNW,292,0.0,0.0,78,0.00,,---,0.00,VWS V13.01,2013-11-23 04:41:00,
2013-11-22 20:46:00,54.0,47.3,29.57,WNW,292,0.0,0.0,78,0.00,,---,0.00,VWS V13.01,2013-11-23 04:46:00,
2013-11-22 20:51:00,54.0,47.3,29.57,WNW,292,0.0,0.0,78,0.00,,---,0.00,VWS V13.01,2013-11-23 04:51:00,
2013-11-22 20:56:00,54.0,47.3,29.56,WNW,292,0.0,0.0,78,0.00,,---,0.00,VWS V13.01,2013-11-23 04:56:00,
2013-11-22 21:01:00,54.0,47.3,29.56,WNW,292,0.0,0.0,78,0.00,,---,0.00,VWS V13.01,2013-11-23 05:01:00,
2013-11-22 21:06:00,54.0,47.3,29.57,WNW,292,0.0,0.0,78,0.00,,---,0.00,VWS V13.01,2013-11-23 05:06:00,
2013-11-22 21:11:00,54.0,47.3,29.57,WNW,292,0.0,0.0,78,0.00,,---,0.00,VWS V13.01,2013-11-23 05:11:00,
2013-11-22 21:16:00,54.0,47.3,29.59,WNW,292,0.0,0.0,78,0.00,,---,0.00,VWS V13.01,2013-11-23 05:16:00,
2013-11-22 21:21:00,53.0,46.0,29.59,WNW,292,0.0,0.0,77,0.00,,---,0.00,VWS V13.01,2013-11-23 05:21:00,
2013-11-22 21:26:00,53.0,46.0,29.59,WNW,292,0.0,0.0,77,0.00,,---,0.00,VWS V13.01,2013-11-23 05:26:00,
2013-11-22 21:31:00,54.0,47.3,29.59,WNW,292,0.0,0.0,78,0.00,,---,0.00,VWS V13.01,2013-11-23 05:31:00,
2013-11-22 21:36:00,54.0,47.3,29.59,WNW,292,0.0,0.0,78,0.00,,---,0.00,VWS V13.01,2013-11-23 05:36:00,
2013-11-22 21:41:00,54.0,47.3,29.59,WNW,292,0.0,0.0,78,0.00,,---,0.00,VWS V13.01,2013-11-23 05:41:00,
2013-11-22 21:46:00,55.0,48.3,29.59,SE,135,2.0,2.0,78,0.00,,---,0.00,VWS V13.01,2013-11-23 05:46:00,
2013-11-22 21:51:00,56.0,49.2,29.59,ESE,112,0.0,0.0,78,0.00,,---,0.00,VWS V13.01,2013-11-23 05:51:00,
2013-11-22 21:56:00,55.0,48.3,29.58,SE,135,2.0,2.0,78,0.00,,---,0.00,VWS V13.01,2013-11-23 05:56:00,
2013-11-22 22:01:00,55.0,48.3,29.58,SSE,157,0.0,1.0,78,0.00,,---,0.00,VWS V13.01,2013-11-23 06:01:00,
2013-11-22 22:06:00,53.0,46.0,29.60,SE,135,4.0,5.0,77,0.00,,---,0.00,VWS V13.01,2013-11-23 06:06:00,
2013-11-22 22:11:00,51.0,44.0,29.60,ESE,112,0.0,0.0,77,0.00,,---,0.00,VWS V13.01,2013-11-23 06:11:00,
2013-11-22 22:16:00,50.0,43.1,29.63,East,90,0.0,0.0,77,0.00,,---,0.00,VWS V13.01,2013-11-23 06:16:00,
2013-11-22 22:21:00,49.0,42.1,29.63,SE,135,0.0,0.0,77,0.00,,---,0.00,VWS V13.01,2013-11-23 06:21:00,
2013-11-22 22:26:00,48.0,41.2,29.64,ESE,112,0.0,0.0,77,0.00,,---,0.00,VWS V13.01,2013-11-23 06:26:00,
2013-11-22 22:31:00,48.0,41.2,29.64,NNE,22,0.0,0.0,77,0.00,,---,0.00,VWS V13.01,2013-11-23 06:31:00,
2013-11-22 22:36:00,47.0,39.8,29.64,East,90,0.0,0.0,76,0.00,,---,0.00,VWS V13.01,2013-11-23 06:36:00,
2013-11-22 22:41:00,47.0,39.8,29.64,East,90,0.0,0.0,76,0.00,,---,0.00,VWS V13.01,2013-11-23 06:41:00,
2013-11-22 22:46:00,47.0,39.8,29.65,SSW,202,0.0,0.0,76,0.00,,---,0.00,VWS V13.01,2013-11-23 06:46:00,
2013-11-22 22:51:00,46.0,38.9,29.65,NNE,22,0.0,0.0,76,0.00,,---,0.00,VWS V13.01,2013-11-23 06:51:00,
2013-11-22 22:56:00,46.0,38.9,29.65,NE,45,0.0,0.0,76,0.00,,---,0.00,VWS V13.01,2013-11-23 06:56:00,
2013-11-22 23:01:00,46.0,38.9,29.65,ESE,112,0.0,0.0,76,0.00,,---,0.00,VWS V13.01,2013-11-23 07:01:00,
2013-11-22 23:06:00,46.0,38.9,29.65,ENE,67,0.0,0.0,76,0.00,,---,0.00,VWS V13.01,2013-11-23 07:06:00,
2013-11-22 23:11:00,46.0,38.9,29.65,East,90,0.0,0.0,76,0.00,,---,0.00,VWS V13.01,2013-11-23 07:11:00,
2013-11-22 23:16:00,46.0,38.9,29.66,NE,45,0.0,0.0,76,0.00,,---,0.00,VWS V13.01,2013-11-23 07:16:00,
2013-11-22 23:21:00,46.0,38.9,29.66,NE,45,0.0,0.0,76,0.00,,---,0.00,VWS V13.01,2013-11-23 07:21:00,
2013-11-22 23:26:00,46.0,38.9,29.67,ESE,112,0.0,0.0,76,0.00,,---,0.00,VWS V13.01,2013-11-23 07:26:00,
2013-11-22 23:31:00,46.0,38.9,29.67,East,90,0.0,0.0,76,0.00,,---,0.00,VWS V13.01,2013-11-23 07:31:00,
2013-11-22 23:36:00,46.0,38.9,29.66,ESE,112,0.0,0.0,76,0.00,,---,0.00,VWS V13.01,2013-11-23 07:36:00,
2013-11-22 23:41:00,46.0,38.9,29.66,ESE,112,0.0,0.0,76,0.00,,---,0.00,VWS V13.01,2013-11-23 07:41:00,
2013-11-22 23:46:00,46.0,38.9,29.66,ESE,112,0.0,0.0,76,0.00,,---,0.00,VWS V13.01,2013-11-23 07:46:00,
2013-11-22 23:51:00,45.0,37.9,29.66,East,90,0.0,0.0,76,0.00,,---,0.00,VWS V13.01,2013-11-23 07:51:00,
2013-11-22 23:56:00,45.0,37.9,29.66,East,90,0.0,0.0,76,0.00,,---,0.00,VWS V13.01,2013-11-23 07:56:00,